createdAt,value
2022-10-05T00:01:23.803Z,97114.50
2022-10-05T00:03:53.877Z,97114.31
2022-10-05T00:06:23.449Z,97105.97
2022-10-05T00:08:51.429Z,97114.78
2022-10-05T00:11:19.427Z,97103.38
2022-10-05T00:13:47.506Z,97108.03
2022-10-05T00:16:19.527Z,97097.25
2022-10-05T00:18:51.318Z,97098.47
2022-10-05T00:21:26.201Z,97102.81
2022-10-05T00:23:59.628Z,97101.13
2022-10-05T00:26:33.218Z,97106.63
2022-10-05T00:29:03.041Z,97092.22
2022-10-05T00:31:33.760Z,97091.56
2022-10-05T00:34:01.978Z,97088.72
2022-10-05T00:36:31.381Z,97090.41
2022-10-05T00:39:02.947Z,97087.56
2022-10-05T00:41:43.011Z,97094.88
2022-10-05T00:44:33.355Z,97087.16
2022-10-05T00:47:22.529Z,97088.81
2022-10-05T00:50:40.563Z,97081.69
2022-10-05T00:53:25.669Z,97081.50
2022-10-05T00:56:04.226Z,97084.16
2022-10-05T00:58:46.237Z,97083.16
2022-10-05T01:01:18.095Z,97088.03
2022-10-05T01:04:01.487Z,97088.81
2022-10-05T01:06:44.807Z,97093.13
2022-10-05T01:09:23.752Z,97088.44
2022-10-05T01:12:03.688Z,97085.19
2022-10-05T01:14:44.369Z,97091.03
2022-10-05T01:17:20.096Z,97089.28
2022-10-05T01:20:25.546Z,97083.59
2022-10-05T01:23:30.130Z,97087.03
2022-10-05T01:26:19.954Z,97087.06
2022-10-05T01:28:59.991Z,97091.75
2022-10-05T01:31:42.575Z,97087.69
2022-10-05T01:34:22.359Z,97079.13
2022-10-05T01:37:01.709Z,97082.38
2022-10-05T01:39:43.636Z,97083.59
2022-10-05T01:42:22.598Z,97080.41
2022-10-05T01:45:03.092Z,97070.03
2022-10-05T01:47:43.351Z,97073.25
2022-10-05T01:50:23.821Z,97069.06
2022-10-05T01:53:06.495Z,97070.91
2022-10-05T01:55:45.994Z,97064.78
2022-10-05T01:58:44.337Z,97061.91
2022-10-05T02:01:22.647Z,97061.69
2022-10-05T02:03:58.373Z,97067.53
2022-10-05T02:06:30.906Z,97057.22
2022-10-05T02:09:09.455Z,97058.44
2022-10-05T02:11:40.118Z,97056.41
2022-10-05T02:14:12.672Z,97055.56
2022-10-05T02:16:47.805Z,97048.47
2022-10-05T02:19:21.848Z,97040.97
2022-10-05T02:21:56.536Z,97039.94
2022-10-05T02:24:32.407Z,97039.50
2022-10-05T02:27:00.653Z,97040.31
2022-10-05T02:29:33.823Z,97045.75
2022-10-05T02:32:08.288Z,97044.97
2022-10-05T02:34:39.763Z,97038.91
2022-10-05T02:37:27.314Z,97041.78
2022-10-05T02:40:13.121Z,97046.31
2022-10-05T02:42:53.201Z,97043.47
2022-10-05T02:45:31.669Z,97052.63
2022-10-05T02:48:11.937Z,97061.59
2022-10-05T02:50:51.145Z,97069.50
2022-10-05T02:53:29.297Z,97074.34
2022-10-05T02:56:11.495Z,97078.44
2022-10-05T02:58:49.457Z,97075.41
2022-10-05T03:01:26.401Z,97075.19
2022-10-05T03:04:12.783Z,97068.09
2022-10-05T03:06:51.369Z,97062.22
2022-10-05T03:09:23.923Z,97059.78
2022-10-05T03:12:09.287Z,97059.41
2022-10-05T03:14:48.383Z,97065.06
2022-10-05T03:17:21.646Z,97055.53
2022-10-05T03:20:15.947Z,97055.34
2022-10-05T03:22:51.920Z,97049.84
2022-10-05T03:26:03.893Z,97046.81
2022-10-05T03:28:41.202Z,97038.91
2022-10-05T03:31:23.283Z,97035.22
2022-10-05T03:33:58.127Z,97038.31
2022-10-05T03:36:37.024Z,97030.19
2022-10-05T03:39:16.009Z,97024.13
2022-10-05T03:41:51.430Z,97023.91
2022-10-05T03:44:36.186Z,97021.69
2022-10-05T03:47:15.680Z,97017.22
2022-10-05T03:49:58.303Z,97005.91
2022-10-05T03:52:36.793Z,97003.25
2022-10-05T03:55:16.391Z,97003.88
2022-10-05T03:57:45.675Z,97009.75
2022-10-05T04:00:18.786Z,97012.19
2022-10-05T04:03:01.749Z,97013.63
2022-10-05T04:05:34.608Z,97006.72
2022-10-05T04:08:11.105Z,97010.78
2022-10-05T04:10:46.439Z,97012.19
2022-10-05T04:13:21.617Z,97006.31
2022-10-05T04:15:58.713Z,97000.63
2022-10-05T04:18:33.206Z,96999.44
2022-10-05T04:21:07.858Z,97005.91
2022-10-05T04:23:47.217Z,97009.13
2022-10-05T04:26:20.988Z,97005.91
2022-10-05T04:28:58.110Z,97009.53
2022-10-05T04:31:50.936Z,96997.59
2022-10-05T04:34:43.648Z,96987.00
2022-10-05T04:37:19.290Z,96995.56
2022-10-05T04:40:00.755Z,96994.13
2022-10-05T04:42:36.946Z,96990.06
2022-10-05T04:45:27.081Z,96999.78
2022-10-05T04:48:29.467Z,97013.78
2022-10-05T04:51:16.565Z,97011.34
2022-10-05T04:53:55.070Z,97007.69
2022-10-05T04:56:35.050Z,97023.50
2022-10-05T04:59:32.376Z,97022.28
2022-10-05T05:02:14.145Z,97025.94
2022-10-05T05:05:15.921Z,97028.78
2022-10-05T05:07:55.007Z,97030.59
2022-10-05T05:10:53.593Z,97027.59
2022-10-05T05:14:16.906Z,97032.06
2022-10-05T05:16:51.084Z,97027.44
2022-10-05T05:19:46.256Z,97031.84
2022-10-05T05:22:26.727Z,97032.88
2022-10-05T05:25:23.014Z,97036.13
2022-10-05T05:27:56.473Z,97042.84
2022-10-05T05:30:39.991Z,97041.63
2022-10-05T05:33:20.609Z,97039.19
2022-10-05T05:36:23.568Z,97047.72
2022-10-05T05:39:12.292Z,97049.34
2022-10-05T05:41:50.409Z,97044.69
2022-10-05T05:44:24.762Z,97054.00
2022-10-05T05:47:04.303Z,97052.78
2022-10-05T05:49:54.175Z,97059.66
2022-10-05T05:52:29.577Z,97050.16
2022-10-05T05:55:03.311Z,97052.78
2022-10-05T05:57:40.156Z,97052.81
2022-10-05T06:00:21.171Z,97050.16
2022-10-05T06:03:03.479Z,97045.06
2022-10-05T06:05:36.539Z,97053.59
2022-10-05T06:08:18.695Z,97066.78
2022-10-05T06:10:56.270Z,97064.34
2022-10-05T06:13:31.078Z,97070.84
2022-10-05T06:16:09.336Z,97065.56
2022-10-05T06:18:44.243Z,97069.59
2022-10-05T06:21:21.690Z,97076.13
2022-10-05T06:23:58.418Z,97080.16
2022-10-05T06:27:07.990Z,97083.00
2022-10-05T06:29:54.793Z,97085.41
2022-10-05T06:32:30.063Z,97091.72
2022-10-05T06:35:13.161Z,97085.38
2022-10-05T06:38:09.404Z,97090.88
2022-10-05T06:41:00.240Z,97098.34
2022-10-05T06:43:48.397Z,97092.66
2022-10-05T06:46:56.759Z,97097.91
2022-10-05T06:49:46.623Z,97100.75
2022-10-05T06:52:45.867Z,97102.16
2022-10-05T06:55:24.838Z,97105.22
2022-10-05T06:58:22.023Z,97100.31
2022-10-05T07:00:55.027Z,97102.31
2022-10-05T07:03:35.383Z,97106.56
2022-10-05T07:06:12.747Z,97098.00
2022-10-05T07:09:05.145Z,97104.25
2022-10-05T07:12:03.683Z,97107.09
2022-10-05T07:14:57.305Z,97110.31
2022-10-05T07:17:42.497Z,97106.84
2022-10-05T07:20:23.535Z,97104.94
2022-10-05T07:23:14.497Z,97100.28
2022-10-05T07:25:52.305Z,97109.81
2022-10-05T07:28:32.331Z,97111.22
2022-10-05T07:31:08.488Z,97113.38
2022-10-05T07:33:46.887Z,97117.66
2022-10-05T07:36:54.587Z,97111.28
2022-10-05T07:39:58.627Z,97117.78
2022-10-05T07:42:46.058Z,97114.88
2022-10-05T07:45:29.131Z,97123.31
2022-10-05T07:48:02.010Z,97128.75
2022-10-05T07:50:39.702Z,97124.38
2022-10-05T07:53:19.562Z,97126.34
2022-10-05T07:55:53.337Z,97125.47
2022-10-05T07:58:29.842Z,97129.50
2022-10-05T08:01:09.141Z,97128.38
2022-10-05T08:03:50.029Z,97133.88
2022-10-05T08:06:44.254Z,97131.28
2022-10-05T08:09:34.534Z,97127.22
2022-10-05T08:12:23.933Z,97128.09
2022-10-05T08:14:59.105Z,97129.97
2022-10-05T08:17:45.159Z,97132.72
2022-10-05T08:20:41.595Z,97117.88
2022-10-05T08:23:21.998Z,97119.72
2022-10-05T08:26:06.334Z,97119.31
2022-10-05T08:28:39.274Z,97120.16
2022-10-05T08:31:20.138Z,97118.22
2022-10-05T08:33:59.618Z,97116.53
2022-10-05T08:36:53.623Z,97112.16
2022-10-05T08:39:25.590Z,97114.03
2022-10-05T08:42:44.963Z,97114.13
2022-10-05T08:46:10.896Z,97113.09
2022-10-05T08:49:17.692Z,97108.16
2022-10-05T08:52:23.574Z,97118.22
2022-10-05T08:55:34.723Z,97119.97
2022-10-05T08:58:37.595Z,97107.47
2022-10-05T09:01:19.452Z,97112.84
2022-10-05T09:04:23.869Z,97111.97
2022-10-05T09:07:18.551Z,97107.91
2022-10-05T09:10:32.458Z,97100.81
2022-10-05T09:13:34.403Z,97105.97
2022-10-05T09:16:33.264Z,97107.91
2022-10-05T09:19:43.316Z,97098.31
2022-10-05T09:22:17.600Z,97097.16
2022-10-05T09:24:57.304Z,97096.34
2022-10-05T09:27:38.215Z,97097.34
2022-10-05T09:30:37.342Z,97096.69
2022-10-05T09:33:53.799Z,97090.75
2022-10-05T09:37:21.039Z,97091.94
2022-10-05T09:40:50.647Z,97084.38
2022-10-05T09:43:45.958Z,97088.63
2022-10-05T09:47:17.823Z,97080.19
2022-10-05T09:50:18.818Z,97069.13
2022-10-05T09:53:05.956Z,97076.03
2022-10-05T09:56:11.115Z,97074.00
2022-10-05T09:59:09.925Z,97069.09
2022-10-05T10:01:57.288Z,97061.69
2022-10-05T10:04:36.521Z,97058.59
2022-10-05T10:07:57.715Z,97053.00
2022-10-05T10:11:04.634Z,97052.25
2022-10-05T10:14:11.621Z,97043.56
2022-10-05T10:17:02.026Z,97043.13
2022-10-05T10:20:06.641Z,97042.94
2022-10-05T10:23:24.210Z,97033.78
2022-10-05T10:26:50.238Z,97040.84
2022-10-05T10:30:04.771Z,97034.75
2022-10-05T10:33:40.560Z,97038.50
2022-10-05T10:36:17.968Z,97031.34
2022-10-05T10:39:03.566Z,97027.59
2022-10-05T10:42:13.951Z,97031.09
2022-10-05T10:45:13.621Z,97027.38
2022-10-05T10:47:52.013Z,97027.97
2022-10-05T10:51:08.047Z,97025.31
2022-10-05T10:54:21.117Z,97018.63
2022-10-05T10:57:03.120Z,97017.28
2022-10-05T11:00:26.936Z,97019.16
2022-10-05T11:03:56.909Z,97015.69
2022-10-05T11:07:22.477Z,97017.28
2022-10-05T11:10:41.361Z,97016.75
2022-10-05T11:13:41.204Z,97005.22
2022-10-05T11:16:33.045Z,97003.63
2022-10-05T11:19:52.838Z,97008.19
2022-10-05T11:22:52.902Z,97003.88
2022-10-05T11:25:53.621Z,97007.06
2022-10-05T11:29:05.270Z,96990.44
2022-10-05T11:32:22.132Z,96990.94
2022-10-05T11:35:20.570Z,96987.16
2022-10-05T11:38:12.888Z,96985.28
2022-10-05T11:41:28.300Z,96978.84
2022-10-05T11:44:43.096Z,96988.47
2022-10-05T11:47:23.512Z,96980.44
2022-10-05T11:50:06.437Z,96976.38
2022-10-05T11:52:44.862Z,96966.22
2022-10-05T11:55:27.316Z,96966.44
2022-10-05T11:58:00.746Z,96958.38
2022-10-05T12:00:37.272Z,96965.03
2022-10-05T12:03:37.203Z,96960.78
2022-10-05T12:06:23.317Z,96951.94
2022-10-05T12:09:05.843Z,96953.53
2022-10-05T12:11:58.329Z,96954.84
2022-10-05T12:14:42.749Z,96945.72
2022-10-05T12:17:24.378Z,96948.13
2022-10-05T12:19:57.604Z,96944.91
2022-10-05T12:22:32.839Z,96948.34
2022-10-05T12:25:19.351Z,96946.47
2022-10-05T12:27:53.238Z,96937.84
2022-10-05T12:30:48.105Z,96935.94
2022-10-05T12:33:22.200Z,96927.28
2022-10-05T12:35:56.776Z,96925.66
2022-10-05T12:38:31.276Z,96919.41
2022-10-05T12:41:08.578Z,96924.00
2022-10-05T12:43:49.694Z,96924.56
2022-10-05T12:46:32.762Z,96923.72
2022-10-05T12:49:41.741Z,96917.03
2022-10-05T12:52:29.113Z,96917.00
2022-10-05T12:55:06.329Z,96915.09
2022-10-05T12:57:41.951Z,96919.91
2022-10-05T13:00:13.565Z,96916.91
2022-10-05T13:02:48.370Z,96910.19
2022-10-05T13:05:28.784Z,96913.78
2022-10-05T13:08:19.009Z,96915.03
2022-10-05T13:10:50.181Z,96908.22
2022-10-05T13:13:35.403Z,96924.47
2022-10-05T13:16:17.823Z,96918.59
2022-10-05T13:19:01.266Z,96922.97
2022-10-05T13:21:55.221Z,96921.41
2022-10-05T13:24:30.784Z,96924.16
2022-10-05T13:27:08.422Z,96938.94
2022-10-05T13:29:41.367Z,96929.28
2022-10-05T13:32:20.293Z,96936.34
2022-10-05T13:35:10.576Z,96935.00
2022-10-05T13:37:47.600Z,96933.66
2022-10-05T13:40:29.810Z,96933.38
2022-10-05T13:43:06.970Z,96933.91
2022-10-05T13:45:45.858Z,96930.72
2022-10-05T13:48:44.061Z,96935.56
2022-10-05T13:51:19.402Z,96933.69
2022-10-05T13:53:55.978Z,96940.41
2022-10-05T13:56:30.876Z,96942.28
2022-10-05T13:59:11.838Z,96937.97
2022-10-05T14:01:45.025Z,96936.13
2022-10-05T14:04:20.750Z,96932.91
2022-10-05T14:06:51.805Z,96935.59
2022-10-05T14:09:32.474Z,96934.81
2022-10-05T14:12:22.912Z,96931.84
2022-10-05T14:14:53.695Z,96929.41
2022-10-05T14:17:40.622Z,96929.16
2022-10-05T14:20:25.190Z,96931.56
2022-10-05T14:23:00.671Z,96932.09
2022-10-05T14:25:30.803Z,96918.97
2022-10-05T14:28:05.441Z,96927.28
2022-10-05T14:30:34.975Z,96927.03
2022-10-05T14:33:16.884Z,96929.72
2022-10-05T14:35:50.001Z,96919.53
2022-10-05T14:38:23.383Z,96918.44
2022-10-05T14:41:15.616Z,96916.03
2022-10-05T14:43:56.428Z,96925.69
2022-10-05T14:46:28.995Z,96919.81
2022-10-05T14:49:17.510Z,96923.81
2022-10-05T14:51:45.548Z,96922.75
2022-10-05T14:54:41.771Z,96917.13
2022-10-05T14:57:25.465Z,96911.75
2022-10-05T15:00:14.306Z,96920.06
2022-10-05T15:03:00.841Z,96915.75
2022-10-05T15:05:36.106Z,96913.34
2022-10-05T15:08:45.139Z,96912.25
2022-10-05T15:11:31.825Z,96913.63
2022-10-05T15:14:02.379Z,96907.97
2022-10-05T15:16:34.177Z,96899.66
2022-10-05T15:19:23.457Z,96911.72
2022-10-05T15:22:23.095Z,96906.63
2022-10-05T15:25:02.590Z,96913.34
2022-10-05T15:27:49.224Z,96903.97
2022-10-05T15:30:19.330Z,96908.25
2022-10-05T15:33:07.569Z,96911.50
2022-10-05T15:36:11.320Z,96908.81
2022-10-05T15:39:00.192Z,96910.97
2022-10-05T15:41:55.269Z,96917.66
2022-10-05T15:44:41.866Z,96914.16
2022-10-05T15:47:18.941Z,96918.69
2022-10-05T15:50:00.660Z,96921.63
2022-10-05T15:52:37.182Z,96924.31
2022-10-05T15:55:32.083Z,96922.44
2022-10-05T15:58:31.727Z,96931.28
2022-10-05T16:01:08.177Z,96927.25
2022-10-05T16:03:50.336Z,96928.59
2022-10-05T16:06:55.857Z,96934.22
2022-10-05T16:09:45.861Z,96941.19
2022-10-05T16:12:35.036Z,96936.59
2022-10-05T16:15:26.230Z,96938.47
2022-10-05T16:18:32.454Z,96936.88
2022-10-05T16:21:14.086Z,96948.91
2022-10-05T16:24:00.180Z,96951.84
2022-10-05T16:27:00.295Z,96951.56
2022-10-05T16:29:40.707Z,96947.53
2022-10-05T16:32:15.111Z,96954.47
2022-10-05T16:35:01.309Z,96958.47
2022-10-05T16:37:41.129Z,96960.06
2022-10-05T16:40:21.085Z,96963.28
2022-10-05T16:43:02.303Z,96963.25
2022-10-05T16:45:52.995Z,96960.28
2022-10-05T16:48:27.387Z,96958.38
2022-10-05T16:51:19.646Z,96961.00
2022-10-05T16:54:02.897Z,96965.81
2022-10-05T16:56:42.318Z,96977.03
2022-10-05T17:00:15.980Z,96967.84
2022-10-05T17:03:11.239Z,96972.63
2022-10-05T17:06:02.204Z,96975.25
2022-10-05T17:09:09.782Z,96978.66
2022-10-05T17:11:55.161Z,96983.38
2022-10-05T17:14:38.429Z,96981.66
2022-10-05T17:17:33.910Z,96977.56
2022-10-05T17:20:24.531Z,96983.38
2022-10-05T17:22:59.262Z,96985.47
2022-10-05T17:25:39.895Z,96986.47
2022-10-05T17:28:24.249Z,96986.97
2022-10-05T17:31:17.492Z,96989.06
2022-10-05T17:34:27.206Z,96996.13
2022-10-05T17:36:59.879Z,96996.91
2022-10-05T17:39:57.126Z,96992.78
2022-10-05T17:42:48.755Z,97006.00
2022-10-05T17:45:54.677Z,96997.41
2022-10-05T17:49:06.733Z,97000.91
2022-10-05T17:52:38.841Z,97008.09
2022-10-05T17:55:45.561Z,97010.47
2022-10-05T17:59:03.069Z,97016.25
2022-10-05T18:01:36.915Z,97014.59
2022-10-05T18:04:42.647Z,97015.13
2022-10-05T18:07:24.308Z,97023.66
2022-10-05T18:10:17.229Z,97032.16
2022-10-05T18:12:51.727Z,97037.25
2022-10-05T18:15:50.150Z,97038.78
2022-10-05T18:18:58.708Z,97041.94
2022-10-05T18:21:37.705Z,97045.91
2022-10-05T18:24:55.741Z,97054.97
2022-10-05T18:28:24.861Z,97057.00
2022-10-05T18:31:09.876Z,97050.91
2022-10-05T18:34:21.429Z,97050.56
2022-10-05T18:37:27.700Z,97059.88
2022-10-05T18:40:21.658Z,97055.03
2022-10-05T18:42:58.568Z,97059.50
2022-10-05T18:45:38.821Z,97066.97
2022-10-05T18:48:22.486Z,97060.03
2022-10-05T18:51:00.372Z,97063.38
2022-10-05T18:53:41.687Z,97068.47
2022-10-05T18:56:25.730Z,97068.88
2022-10-05T18:59:11.122Z,97076.97
2022-10-05T19:02:08.383Z,97081.50
2022-10-05T19:04:53.559Z,97082.44
2022-10-05T19:07:33.309Z,97086.50
2022-10-05T19:10:15.799Z,97099.00
2022-10-05T19:13:06.718Z,97093.09
2022-10-05T19:15:45.761Z,97096.03
2022-10-05T19:18:52.014Z,97101.41
2022-10-05T19:21:34.391Z,97104.78
2022-10-05T19:24:42.610Z,97108.66
2022-10-05T19:27:22.978Z,97113.97
2022-10-05T19:30:22.912Z,97112.94
2022-10-05T19:33:25.934Z,97129.47
2022-10-05T19:36:15.413Z,97132.63
2022-10-05T19:38:59.871Z,97132.38
2022-10-05T19:41:42.419Z,97137.00
2022-10-05T19:44:21.749Z,97143.34
2022-10-05T19:47:01.382Z,97149.25
2022-10-05T19:49:49.723Z,97148.69
2022-10-05T19:52:31.087Z,97150.56
2022-10-05T19:55:12.093Z,97152.72
2022-10-05T19:57:48.839Z,97152.47
2022-10-05T20:00:24.637Z,97158.16
2022-10-05T20:03:08.839Z,97158.94
2022-10-05T20:05:37.717Z,97174.34
2022-10-05T20:08:15.158Z,97177.50
2022-10-05T20:10:43.286Z,97175.72
2022-10-05T20:13:21.958Z,97178.72
2022-10-05T20:16:26.565Z,97184.50
2022-10-05T20:19:12.309Z,97197.13
2022-10-05T20:21:45.943Z,97197.34
2022-10-05T20:24:18.009Z,97197.94
2022-10-05T20:27:16.094Z,97204.31
2022-10-05T20:29:47.039Z,97206.41
2022-10-05T20:32:17.781Z,97215.59
2022-10-05T20:34:48.358Z,97215.38
2022-10-05T20:37:19.484Z,97225.94
2022-10-05T20:39:50.198Z,97223.91
2022-10-05T20:42:19.682Z,97224.50
2022-10-05T20:44:52.905Z,97221.91
2022-10-05T20:47:24.018Z,97227.38
2022-10-05T20:49:53.292Z,97226.56
2022-10-05T20:52:22.373Z,97235.16
2022-10-05T20:54:58.763Z,97240.94
2022-10-05T20:57:27.226Z,97245.81
2022-10-05T20:59:55.254Z,97254.81
2022-10-05T21:02:23.286Z,97251.50
2022-10-05T21:04:51.588Z,97256.91
2022-10-05T21:07:20.848Z,97250.00
2022-10-05T21:09:48.916Z,97262.72
2022-10-05T21:12:18.299Z,97263.19
2022-10-05T21:14:47.372Z,97269.25
2022-10-05T21:17:15.773Z,97272.13
2022-10-05T21:19:43.774Z,97277.09
2022-10-05T21:22:11.825Z,97283.16
2022-10-05T21:24:41.850Z,97275.72
2022-10-05T21:27:10.536Z,97282.03
2022-10-05T21:29:41.186Z,97282.03
2022-10-05T21:32:11.564Z,97287.81
2022-10-05T21:34:40.682Z,97288.28
2022-10-05T21:37:09.225Z,97293.81
2022-10-05T21:39:37.295Z,97287.72
2022-10-05T21:42:05.567Z,97287.13
2022-10-05T21:44:33.624Z,97288.28
2022-10-05T21:47:04.205Z,97293.59
2022-10-05T21:49:32.522Z,97293.25
2022-10-05T21:52:02.339Z,97301.72
2022-10-05T21:54:30.851Z,97298.72
2022-10-05T21:57:00.011Z,97308.88
2022-10-05T21:59:32.438Z,97305.44
2022-10-05T22:02:02.262Z,97305.19
2022-10-05T22:04:30.374Z,97303.56
2022-10-05T22:06:58.598Z,97303.69
2022-10-05T22:09:26.922Z,97300.47
2022-10-05T22:11:54.999Z,97299.53
2022-10-05T22:14:23.895Z,97301.63
2022-10-05T22:16:53.971Z,97310.66
2022-10-05T22:19:23.861Z,97316.19
2022-10-05T22:21:51.867Z,97307.44
2022-10-05T22:24:22.788Z,97308.44
2022-10-05T22:26:52.394Z,97316.09
2022-10-05T22:29:21.183Z,97319.09
2022-10-05T22:31:49.544Z,97314.00
2022-10-05T22:34:18.826Z,97320.03
2022-10-05T22:36:48.674Z,97311.69
2022-10-05T22:39:17.751Z,97313.44
2022-10-05T22:41:46.322Z,97316.78
2022-10-05T22:44:14.371Z,97325.69
2022-10-05T22:46:42.410Z,97326.63
2022-10-05T22:49:10.552Z,97322.81
2022-10-05T22:51:38.599Z,97319.69
2022-10-05T22:54:08.131Z,97320.13
2022-10-05T22:56:36.194Z,97317.47
2022-10-05T22:59:04.255Z,97322.81
2022-10-05T23:01:32.425Z,97321.97
2022-10-05T23:04:00.500Z,97322.81
2022-10-05T23:06:28.608Z,97330.22
2022-10-05T23:08:57.348Z,97329.63
2022-10-05T23:11:30.067Z,97329.19
2022-10-05T23:13:59.804Z,97334.59
2022-10-05T23:16:29.712Z,97333.00
2022-10-05T23:18:58.305Z,97331.84
2022-10-05T23:21:29.449Z,97339.91
2022-10-05T23:23:57.476Z,97332.28
2022-10-05T23:26:27.248Z,97337.63
2022-10-05T23:28:55.313Z,97341.19
2022-10-05T23:31:27.082Z,97336.34
2022-10-05T23:33:55.541Z,97340.88
2022-10-05T23:36:25.814Z,97346.19
2022-10-05T23:38:54.351Z,97342.84
2022-10-05T23:41:22.789Z,97346.41
2022-10-05T23:43:54.630Z,97346.66
2022-10-05T23:46:22.971Z,97350.81
2022-10-05T23:48:51.363Z,97352.53
2022-10-05T23:51:19.627Z,97351.16
2022-10-05T23:53:47.631Z,97353.22
2022-10-05T23:56:15.723Z,97348.91
2022-10-05T23:58:44.888Z,97362.91
